sensor_id;sensor_type;location;lat;lon;timestamp;pressure;altitude;pressure_sealevel;temperature
78905;BMP280;68291;49.602;8.722;2023-07-29T00:00:45;99007.44;;;20.61
78905;BMP280;68291;49.602;8.722;2023-07-29T00:03:26;99010.75;;;20.63
78905;BMP280;68291;49.602;8.722;2023-07-29T00:06:09;99018.47;;;20.64
78905;BMP280;68291;49.602;8.722;2023-07-29T00:09:04;99014.88;;;20.65
78905;BMP280;68291;49.602;8.722;2023-07-29T00:11:48;98997.25;;;20.67
78905;BMP280;68291;49.602;8.722;2023-07-29T00:14:31;99001.09;;;20.73
78905;BMP280;68291;49.602;8.722;2023-07-29T00:17:13;98991.00;;;20.78
78905;BMP280;68291;49.602;8.722;2023-07-29T00:20:14;98988.94;;;20.81
78905;BMP280;68291;49.602;8.722;2023-07-29T00:22:45;98986.00;;;20.84
78905;BMP280;68291;49.602;8.722;2023-07-29T00:25:57;98975.41;;;20.86
78905;BMP280;68291;49.602;8.722;2023-07-29T00:28:33;98995.50;;;20.85
78905;BMP280;68291;49.602;8.722;2023-07-29T00:31:14;98991.38;;;20.83
78905;BMP280;68291;49.602;8.722;2023-07-29T00:34:09;98988.09;;;20.81
78905;BMP280;68291;49.602;8.722;2023-07-29T00:37:05;98982.56;;;20.84
78905;BMP280;68291;49.602;8.722;2023-07-29T00:39:55;98973.75;;;20.85
78905;BMP280;68291;49.602;8.722;2023-07-29T00:42:29;98966.56;;;20.87
78905;BMP280;68291;49.602;8.722;2023-07-29T00:45:08;98972.63;;;20.87
78905;BMP280;68291;49.602;8.722;2023-07-29T00:48:05;98972.50;;;20.89
78905;BMP280;68291;49.602;8.722;2023-07-29T00:50:42;98965.44;;;20.89
78905;BMP280;68291;49.602;8.722;2023-07-29T00:53:42;98957.47;;;20.91
78905;BMP280;68291;49.602;8.722;2023-07-29T00:56:22;98959.78;;;20.93
78905;BMP280;68291;49.602;8.722;2023-07-29T00:59:18;98950.97;;;20.94
78905;BMP280;68291;49.602;8.722;2023-07-29T01:02:14;98945.06;;;20.93
78905;BMP280;68291;49.602;8.722;2023-07-29T01:05:07;98940.94;;;20.90
78905;BMP280;68291;49.602;8.722;2023-07-29T01:07:54;98938.47;;;20.89
78905;BMP280;68291;49.602;8.722;2023-07-29T01:10:43;98940.41;;;20.87
78905;BMP280;68291;49.602;8.722;2023-07-29T01:13:41;98940.53;;;20.85
78905;BMP280;68291;49.602;8.722;2023-07-29T01:16:30;98948.81;;;20.81
78905;BMP280;68291;49.602;8.722;2023-07-29T01:22:16;98951.50;;;20.71
78905;BMP280;68291;49.602;8.722;2023-07-29T01:25:22;98953.44;;;20.69
78905;BMP280;68291;49.602;8.722;2023-07-29T01:28:04;98934.84;;;20.72
78905;BMP280;68291;49.602;8.722;2023-07-29T01:30:43;98935.22;;;20.77
78905;BMP280;68291;49.602;8.722;2023-07-29T01:33:31;98936.72;;;20.80
78905;BMP280;68291;49.602;8.722;2023-07-29T01:36:22;98940.03;;;20.82
78905;BMP280;68291;49.602;8.722;2023-07-29T01:39:21;98937.09;;;20.85
78905;BMP280;68291;49.602;8.722;2023-07-29T01:42:02;98935.16;;;20.87
78905;BMP280;68291;49.602;8.722;2023-07-29T01:44:34;98924.56;;;20.88
78905;BMP280;68291;49.602;8.722;2023-07-29T01:47:34;98934.03;;;20.89
78905;BMP280;68291;49.602;8.722;2023-07-29T01:50:26;98933.91;;;20.91
78905;BMP280;68291;49.602;8.722;2023-07-29T01:52:58;98931.28;;;20.91
78905;BMP280;68291;49.602;8.722;2023-07-29T01:55:29;98929.34;;;20.93
78905;BMP280;68291;49.602;8.722;2023-07-29T01:58:11;98924.13;;;20.93
78905;BMP280;68291;49.602;8.722;2023-07-29T02:00:48;98926.59;;;20.94
78905;BMP280;68291;49.602;8.722;2023-07-29T02:03:19;98924.13;;;20.93
78905;BMP280;68291;49.602;8.722;2023-07-29T02:06:10;98929.34;;;20.93
78905;BMP280;68291;49.602;8.722;2023-07-29T02:08:51;98922.19;;;20.94
78905;BMP280;68291;49.602;8.722;2023-07-29T02:11:31;98917.44;;;20.98
78905;BMP280;68291;49.602;8.722;2023-07-29T02:14:20;98908.66;;;20.99
78905;BMP280;68291;49.602;8.722;2023-07-29T02:17:17;98903.28;;;21.00
78905;BMP280;68291;49.602;8.722;2023-07-29T02:20:12;98898.19;;;20.99
78905;BMP280;68291;49.602;8.722;2023-07-29T02:23:01;98898.84;;;21.01
78905;BMP280;68291;49.602;8.722;2023-07-29T02:25:57;98898.72;;;21.02
78905;BMP280;68291;49.602;8.722;2023-07-29T02:28:48;98900.47;;;21.02
78905;BMP280;68291;49.602;8.722;2023-07-29T02:31:33;98891.94;;;21.00
78905;BMP280;68291;49.602;8.722;2023-07-29T02:34:30;98904.75;;;21.03
78905;BMP280;68291;49.602;8.722;2023-07-29T02:37:12;98899.34;;;21.04
78905;BMP280;68291;49.602;8.722;2023-07-29T02:39:51;98901.03;;;21.05
78905;BMP280;68291;49.602;8.722;2023-07-29T02:42:23;98901.69;;;21.07
78905;BMP280;68291;49.602;8.722;2023-07-29T02:45:03;98898.09;;;21.08
78905;BMP280;68291;49.602;8.722;2023-07-29T02:47:51;98906.63;;;21.10
78905;BMP280;68291;49.602;8.722;2023-07-29T02:50:25;98903.06;;;21.11
78905;BMP280;68291;49.602;8.722;2023-07-29T02:53:00;98899.13;;;21.15
78905;BMP280;68291;49.602;8.722;2023-07-29T02:55:41;98898.03;;;21.18
78905;BMP280;68291;49.602;8.722;2023-07-29T02:58:14;98899.53;;;21.20
78905;BMP280;68291;49.602;8.722;2023-07-29T03:01:02;98902.84;;;21.22
78905;BMP280;68291;49.602;8.722;2023-07-29T03:03:40;98906.25;;;21.23
78905;BMP280;68291;49.602;8.722;2023-07-29T03:06:14;98901.72;;;21.25
78905;BMP280;68291;49.602;8.722;2023-07-29T03:08:48;98893.84;;;21.25
78905;BMP280;68291;49.602;8.722;2023-07-29T03:11:34;98890.25;;;21.26
78905;BMP280;68291;49.602;8.722;2023-07-29T03:14:18;98879.75;;;21.26
78905;BMP280;68291;49.602;8.722;2023-07-29T03:17:20;98877.31;;;21.24
78905;BMP280;68291;49.602;8.722;2023-07-29T03:20:09;98878.28;;;21.23
78905;BMP280;68291;49.602;8.722;2023-07-29T03:22:48;98870.88;;;21.19
78905;BMP280;68291;49.602;8.722;2023-07-29T03:25:31;98863.84;;;21.19
78905;BMP280;68291;49.602;8.722;2023-07-29T03:28:18;98863.84;;;21.19
78905;BMP280;68291;49.602;8.722;2023-07-29T03:31:03;98860.25;;;21.20
78905;BMP280;68291;49.602;8.722;2023-07-29T03:33:45;98858.59;;;21.19
78905;BMP280;68291;49.602;8.722;2023-07-29T03:36:42;98854.34;;;21.18
78905;BMP280;68291;49.602;8.722;2023-07-29T03:39:16;98860.53;;;21.17
78905;BMP280;68291;49.602;8.722;2023-07-29T03:42:02;98865.28;;;21.14
78905;BMP280;68291;49.602;8.722;2023-07-29T03:44:38;98868.03;;;21.12
78905;BMP280;68291;49.602;8.722;2023-07-29T03:47:15;98860.84;;;21.14
78905;BMP280;68291;49.602;8.722;2023-07-29T03:49:48;98848.22;;;21.10
78905;BMP280;68291;49.602;8.722;2023-07-29T03:52:48;98848.13;;;21.19
78905;BMP280;68291;49.602;8.722;2023-07-29T03:55:19;98837.38;;;21.22
78905;BMP280;68291;49.602;8.722;2023-07-29T03:58:00;98833.75;;;21.23
78905;BMP280;68291;49.602;8.722;2023-07-29T04:00:41;98837.38;;;21.22
78905;BMP280;68291;49.602;8.722;2023-07-29T04:03:28;98826.34;;;21.19
78905;BMP280;68291;49.602;8.722;2023-07-29T04:06:26;98844.53;;;21.20
78905;BMP280;68291;49.602;8.722;2023-07-29T04:09:08;98848.13;;;21.19
78905;BMP280;68291;49.602;8.722;2023-07-29T04:11:43;98853.34;;;21.19
78905;BMP280;68291;49.602;8.722;2023-07-29T04:14:13;98854.03;;;21.21
78905;BMP280;68291;49.602;8.722;2023-07-29T04:16:51;98861.59;;;21.24
78905;BMP280;68291;49.602;8.722;2023-07-29T04:19:32;98861.28;;;21.27
78905;BMP280;68291;49.602;8.722;2023-07-29T04:22:13;98854.09;;;21.29
78905;BMP280;68291;49.602;8.722;2023-07-29T04:25:12;98849.22;;;21.34
78905;BMP280;68291;49.602;8.722;2023-07-29T04:27:58;98839.44;;;21.36
78905;BMP280;68291;49.602;8.722;2023-07-29T04:30:46;98846.03;;;21.40
78905;BMP280;68291;49.602;8.722;2023-07-29T04:33:18;98847.41;;;21.44
78905;BMP280;68291;49.602;8.722;2023-07-29T04:35:51;98849.69;;;21.47
78905;BMP280;68291;49.602;8.722;2023-07-29T04:38:36;98851.19;;;21.49
78905;BMP280;68291;49.602;8.722;2023-07-29T04:41:55;98845.81;;;21.51
78905;BMP280;68291;49.602;8.722;2023-07-29T04:44:35;98856.34;;;21.59
78905;BMP280;68291;49.602;8.722;2023-07-29T04:47:20;98848.84;;;21.63
78905;BMP280;68291;49.602;8.722;2023-07-29T04:49:56;98847.56;;;21.67
78905;BMP280;68291;49.602;8.722;2023-07-29T04:52:30;98847.38;;;21.69
78905;BMP280;68291;49.602;8.722;2023-07-29T04:55:27;98846.28;;;21.71
78905;BMP280;68291;49.602;8.722;2023-07-29T04:58:24;98849.56;;;21.73
78905;BMP280;68291;49.602;8.722;2023-07-29T05:01:34;98851.88;;;21.76
78905;BMP280;68291;49.602;8.722;2023-07-29T05:04:17;98855.84;;;21.80
78905;BMP280;68291;49.602;8.722;2023-07-29T05:07:08;98861.56;;;21.84
78905;BMP280;68291;49.602;8.722;2023-07-29T05:09:44;98869.97;;;21.87
78905;BMP280;68291;49.602;8.722;2023-07-29T05:12:24;98863.72;;;21.88
78905;BMP280;68291;49.602;8.722;2023-07-29T05:15:25;98875.88;;;21.89
78905;BMP280;68291;49.602;8.722;2023-07-29T05:18:00;98879.16;;;21.91
78905;BMP280;68291;49.602;8.722;2023-07-29T05:20:42;98877.50;;;21.90
78905;BMP280;68291;49.602;8.722;2023-07-29T05:23:23;98881.94;;;21.90
78905;BMP280;68291;49.602;8.722;2023-07-29T05:26:04;98879.47;;;21.88
78905;BMP280;68291;49.602;8.722;2023-07-29T05:28:44;98877.50;;;21.90
78905;BMP280;68291;49.602;8.722;2023-07-29T05:31:23;98866.72;;;21.93
78905;BMP280;68291;49.602;8.722;2023-07-29T05:33:55;98870.03;;;21.95
78905;BMP280;68291;49.602;8.722;2023-07-29T05:36:42;98867.75;;;22.00
78905;BMP280;68291;49.602;8.722;2023-07-29T05:39:38;98881.53;;;22.02
78905;BMP280;68291;49.602;8.722;2023-07-29T05:42:34;98895.59;;;22.01
78905;BMP280;68291;49.602;8.722;2023-07-29T05:45:30;98901.50;;;22.03
78905;BMP280;68291;49.602;8.722;2023-07-29T05:48:25;98896.66;;;22.08
78905;BMP280;68291;49.602;8.722;2023-07-29T05:50:57;98892.88;;;22.10
78905;BMP280;68291;49.602;8.722;2023-07-29T05:53:27;98892.75;;;22.12
78905;BMP280;68291;49.602;8.722;2023-07-29T05:56:12;98892.75;;;22.12
78905;BMP280;68291;49.602;8.722;2023-07-29T05:59:10;98884.22;;;22.10
78905;BMP280;68291;49.602;8.722;2023-07-29T06:02:04;98889.16;;;22.13
78905;BMP280;68291;49.602;8.722;2023-07-29T06:04:41;98883.59;;;22.16
78905;BMP280;68291;49.602;8.722;2023-07-29T06:07:23;98878.53;;;22.22
78905;BMP280;68291;49.602;8.722;2023-07-29T06:10:05;98884.31;;;22.26
78905;BMP280;68291;49.602;8.722;2023-07-29T06:12:40;98885.94;;;22.27
78905;BMP280;68291;49.602;8.722;2023-07-29T06:15:20;98877.09;;;22.28
78905;BMP280;68291;49.602;8.722;2023-07-29T06:18:09;98874.81;;;22.33
78905;BMP280;68291;49.602;8.722;2023-07-29T06:20:57;98875.03;;;22.39
78905;BMP280;68291;49.602;8.722;2023-07-29T06:23:30;98878.50;;;22.47
78905;BMP280;68291;49.602;8.722;2023-07-29T06:26:03;98857.38;;;22.57
78905;BMP280;68291;49.602;8.722;2023-07-29T06:28:43;98864.13;;;22.67
78905;BMP280;68291;49.602;8.722;2023-07-29T06:31:28;98878.91;;;22.76
78905;BMP280;68291;49.602;8.722;2023-07-29T06:34:09;98874.41;;;22.86
78905;BMP280;68291;49.602;8.722;2023-07-29T06:37:16;98874.09;;;22.97
78905;BMP280;68291;49.602;8.722;2023-07-29T06:39:55;98872.16;;;23.06
78905;BMP280;68291;49.602;8.722;2023-07-29T06:42:30;98872.94;;;23.15
78905;BMP280;68291;49.602;8.722;2023-07-29T06:45:05;98868.53;;;23.23
78905;BMP280;68291;49.602;8.722;2023-07-29T06:47:53;98872.81;;;23.32
78905;BMP280;68291;49.602;8.722;2023-07-29T06:50:28;98871.19;;;23.39
78905;BMP280;68291;49.602;8.722;2023-07-29T06:53:20;98869.38;;;23.47
78905;BMP280;68291;49.602;8.722;2023-07-29T06:56:11;98859.84;;;23.46
78905;BMP280;68291;49.602;8.722;2023-07-29T06:59:00;98867.06;;;23.44
78905;BMP280;68291;49.602;8.722;2023-07-29T07:01:45;98877.75;;;23.43
78905;BMP280;68291;49.602;8.722;2023-07-29T07:04:23;98871.19;;;23.39
78905;BMP280;68291;49.602;8.722;2023-07-29T07:06:54;98879.06;;;23.31
78905;BMP280;68291;49.602;8.722;2023-07-29T07:09:54;98875.94;;;23.28
78905;BMP280;68291;49.602;8.722;2023-07-29T07:12:54;98881.34;;;23.34
78905;BMP280;68291;49.602;8.722;2023-07-29T07:15:27;98883.50;;;23.46
78905;BMP280;68291;49.602;8.722;2023-07-29T07:17:59;98873.66;;;23.64
78905;BMP280;68291;49.602;8.722;2023-07-29T07:20:42;98891.88;;;23.81
78905;BMP280;68291;49.602;8.722;2023-07-29T07:23:23;98885.47;;;23.92
78905;BMP280;68291;49.602;8.722;2023-07-29T07:25:56;98885.44;;;24.00
78905;BMP280;68291;49.602;8.722;2023-07-29T07:28:29;98889.53;;;24.10
78905;BMP280;68291;49.602;8.722;2023-07-29T07:31:17;98895.63;;;24.10
78905;BMP280;68291;49.602;8.722;2023-07-29T07:33:58;98898.09;;;24.12
78905;BMP280;68291;49.602;8.722;2023-07-29T07:36:31;98899.41;;;24.08
78905;BMP280;68291;49.602;8.722;2023-07-29T07:39:14;98895.47;;;24.04
78905;BMP280;68291;49.602;8.722;2023-07-29T07:42:03;98900.88;;;24.10
78905;BMP280;68291;49.602;8.722;2023-07-29T07:44:47;98896.75;;;24.16
78905;BMP280;68291;49.602;8.722;2023-07-29T07:47:25;98888.53;;;24.19
78905;BMP280;68291;49.602;8.722;2023-07-29T07:49:59;98902.16;;;24.22
78905;BMP280;68291;49.602;8.722;2023-07-29T07:52:39;98892.50;;;24.23
78905;BMP280;68291;49.602;8.722;2023-07-29T07:55:19;98901.69;;;24.19
78905;BMP280;68291;49.602;8.722;2023-07-29T07:58:07;98903.00;;;24.07
78905;BMP280;68291;49.602;8.722;2023-07-29T08:00:39;98903.88;;;23.92
78905;BMP280;68291;49.602;8.722;2023-07-29T08:03:27;98908.34;;;23.75
78905;BMP280;68291;49.602;8.722;2023-07-29T08:06:11;98918.03;;;23.67
78905;BMP280;68291;49.602;8.722;2023-07-29T08:08:46;98918.84;;;23.60
78905;BMP280;68291;49.602;8.722;2023-07-29T08:11:20;98912.56;;;23.53
78905;BMP280;68291;49.602;8.722;2023-07-29T08:14:10;98910.44;;;23.48
78905;BMP280;68291;49.602;8.722;2023-07-29T08:16:42;98917.16;;;23.51
78905;BMP280;68291;49.602;8.722;2023-07-29T08:19:13;98907.66;;;23.50
78905;BMP280;68291;49.602;8.722;2023-07-29T08:21:44;98911.75;;;23.52
78905;BMP280;68291;49.602;8.722;2023-07-29T08:24:16;98919.50;;;23.54
78905;BMP280;68291;49.602;8.722;2023-07-29T08:26:51;98918.19;;;23.58
78905;BMP280;68291;49.602;8.722;2023-07-29T08:29:36;98913.28;;;23.63
78905;BMP280;68291;49.602;8.722;2023-07-29T08:32:07;98901.75;;;23.72
78905;BMP280;68291;49.602;8.722;2023-07-29T08:34:43;98902.38;;;23.81
78905;BMP280;68291;49.602;8.722;2023-07-29T08:37:24;98901.41;;;23.90
78905;BMP280;68291;49.602;8.722;2023-07-29T08:40:07;98902.91;;;23.93
78905;BMP280;68291;49.602;8.722;2023-07-29T08:42:42;98907.97;;;23.94
78905;BMP280;68291;49.602;8.722;2023-07-29T08:45:27;98907.50;;;23.91
78905;BMP280;68291;49.602;8.722;2023-07-29T08:48:10;98913.75;;;23.82
78905;BMP280;68291;49.602;8.722;2023-07-29T08:51:02;98918.19;;;23.66
78905;BMP280;68291;49.602;8.722;2023-07-29T08:53:39;98920.81;;;23.58
78905;BMP280;68291;49.602;8.722;2023-07-29T08:56:14;98917.50;;;23.56
78905;BMP280;68291;49.602;8.722;2023-07-29T08:58:52;98921.66;;;23.58
78905;BMP280;68291;49.602;8.722;2023-07-29T09:01:49;98918.84;;;23.68
78905;BMP280;68291;49.602;8.722;2023-07-29T09:04:36;98933.31;;;23.72
78905;BMP280;68291;49.602;8.722;2023-07-29T09:07:30;98936.25;;;23.69
78905;BMP280;68291;49.602;8.722;2023-07-29T09:10:03;98940.72;;;23.76
78905;BMP280;68291;49.602;8.722;2023-07-29T09:12:59;98929.03;;;23.78
78905;BMP280;68291;49.602;8.722;2023-07-29T09:15:40;98938.25;;;23.90
78905;BMP280;68291;49.602;8.722;2023-07-29T09:18:47;98941.00;;;24.05
78905;BMP280;68291;49.602;8.722;2023-07-29T09:21:29;98935.41;;;24.23
78905;BMP280;68291;49.602;8.722;2023-07-29T09:24:17;98935.84;;;24.42
78905;BMP280;68291;49.602;8.722;2023-07-29T09:26:55;98925.25;;;24.66
78905;BMP280;68291;49.602;8.722;2023-07-29T09:29:48;98919.25;;;24.80
78905;BMP280;68291;49.602;8.722;2023-07-29T09:32:26;98932.06;;;24.91
78905;BMP280;68291;49.602;8.722;2023-07-29T09:35:24;98935.53;;;24.83
78905;BMP280;68291;49.602;8.722;2023-07-29T09:38:08;98931.75;;;24.78
78905;BMP280;68291;49.602;8.722;2023-07-29T09:40:48;98920.41;;;24.77
78905;BMP280;68291;49.602;8.722;2023-07-29T09:43:28;98923.03;;;24.77
78905;BMP280;68291;49.602;8.722;2023-07-29T09:46:06;98919.88;;;24.82
78905;BMP280;68291;49.602;8.722;2023-07-29T09:48:38;98915.75;;;24.87
78905;BMP280;68291;49.602;8.722;2023-07-29T09:51:15;98926.25;;;25.03
78905;BMP280;68291;49.602;8.722;2023-07-29T09:54:05;98913.81;;;25.19
78905;BMP280;68291;49.602;8.722;2023-07-29T09:56:44;98909.19;;;25.21
78905;BMP280;68291;49.602;8.722;2023-07-29T09:59:36;98910.94;;;25.29
78905;BMP280;68291;49.602;8.722;2023-07-29T10:02:15;98904.59;;;25.38
78905;BMP280;68291;49.602;8.722;2023-07-29T10:04:56;98894.28;;;25.50
78905;BMP280;68291;49.602;8.722;2023-07-29T10:07:41;98889.47;;;25.76
78905;BMP280;68291;49.602;8.722;2023-07-29T10:10:18;98891.78;;;25.93
78905;BMP280;68291;49.602;8.722;2023-07-29T10:13:10;98886.50;;;25.93
78905;BMP280;68291;49.602;8.722;2023-07-29T10:15:52;98897.88;;;25.94
78905;BMP280;68291;49.602;8.722;2023-07-29T10:18:45;98894.34;;;26.01
78905;BMP280;68291;49.602;8.722;2023-07-29T10:21:30;98903.09;;;26.16
78905;BMP280;68291;49.602;8.722;2023-07-29T10:24:22;98907.41;;;26.17
78905;BMP280;68291;49.602;8.722;2023-07-29T10:27:02;98906.63;;;26.09
78905;BMP280;68291;49.602;8.722;2023-07-29T10:29:45;98908.91;;;25.97
78905;BMP280;68291;49.602;8.722;2023-07-29T10:32:25;98908.63;;;25.92
78905;BMP280;68291;49.602;8.722;2023-07-29T10:34:59;98901.97;;;25.82
78905;BMP280;68291;49.602;8.722;2023-07-29T10:37:38;98904.06;;;25.86
78905;BMP280;68291;49.602;8.722;2023-07-29T10:40:15;98902.06;;;25.88
78905;BMP280;68291;49.602;8.722;2023-07-29T10:43:02;98899.16;;;25.98
78905;BMP280;68291;49.602;8.722;2023-07-29T10:45:40;98893.91;;;26.12
78905;BMP280;68291;49.602;8.722;2023-07-29T10:48:43;98900.31;;;26.32
78905;BMP280;68291;49.602;8.722;2023-07-29T10:51:30;98892.88;;;26.35
78905;BMP280;68291;49.602;8.722;2023-07-29T10:54:12;98893.22;;;26.47
78905;BMP280;68291;49.602;8.722;2023-07-29T10:56:58;98883.38;;;26.55
78905;BMP280;68291;49.602;8.722;2023-07-29T10:59:34;98877.44;;;26.67
78905;BMP280;68291;49.602;8.722;2023-07-29T11:02:19;98872.69;;;26.77
78905;BMP280;68291;49.602;8.722;2023-07-29T11:05:16;98865.56;;;26.92
78905;BMP280;68291;49.602;8.722;2023-07-29T11:07:49;98872.06;;;27.10
78905;BMP280;68291;49.602;8.722;2023-07-29T11:10:43;98866.22;;;27.15
78905;BMP280;68291;49.602;8.722;2023-07-29T11:13:27;98869.34;;;27.04
78905;BMP280;68291;49.602;8.722;2023-07-29T11:16:03;98860.66;;;26.89
78905;BMP280;68291;49.602;8.722;2023-07-29T11:18:36;98874.34;;;26.78
78905;BMP280;68291;49.602;8.722;2023-07-29T11:21:17;98863.84;;;26.70
78905;BMP280;68291;49.602;8.722;2023-07-29T11:24:00;98859.47;;;26.63
78905;BMP280;68291;49.602;8.722;2023-07-29T11:26:46;98859.41;;;26.56
78905;BMP280;68291;49.602;8.722;2023-07-29T11:29:36;98858.16;;;26.52
78905;BMP280;68291;49.602;8.722;2023-07-29T11:32:13;98858.50;;;26.49
78905;BMP280;68291;49.602;8.722;2023-07-29T11:34:55;98855.22;;;26.48
78905;BMP280;68291;49.602;8.722;2023-07-29T11:37:26;98868.25;;;26.49
78905;BMP280;68291;49.602;8.722;2023-07-29T11:40:07;98870.72;;;26.36
78905;BMP280;68291;49.602;8.722;2023-07-29T11:42:48;98880.72;;;26.12
78905;BMP280;68291;49.602;8.722;2023-07-29T11:45:29;98875.03;;;25.86
78905;BMP280;68291;49.602;8.722;2023-07-29T11:48:27;98862.63;;;25.73
78905;BMP280;68291;49.602;8.722;2023-07-29T11:51:02;98865.91;;;25.75
78905;BMP280;68291;49.602;8.722;2023-07-29T11:53:37;98854.91;;;25.71
78905;BMP280;68291;49.602;8.722;2023-07-29T11:56:14;98852.00;;;25.80
78905;BMP280;68291;49.602;8.722;2023-07-29T11:58:48;98838.75;;;26.03
78905;BMP280;68291;49.602;8.722;2023-07-29T12:01:34;98835.41;;;26.23
78905;BMP280;68291;49.602;8.722;2023-07-29T12:04:06;98843.03;;;26.47
78905;BMP280;68291;49.602;8.722;2023-07-29T12:06:43;98830.88;;;26.66
78905;BMP280;68291;49.602;8.722;2023-07-29T12:09:27;98834.59;;;26.86
78905;BMP280;68291;49.602;8.722;2023-07-29T12:12:05;98841.94;;;27.05
78905;BMP280;68291;49.602;8.722;2023-07-29T12:14:45;98845.09;;;27.15
78905;BMP280;68291;49.602;8.722;2023-07-29T12:17:19;98837.13;;;27.35
78905;BMP280;68291;49.602;8.722;2023-07-29T12:19:55;98840.59;;;27.56
78905;BMP280;68291;49.602;8.722;2023-07-29T12:22:38;98839.69;;;27.70
78905;BMP280;68291;49.602;8.722;2023-07-29T12:25:09;98843.94;;;27.65
78905;BMP280;68291;49.602;8.722;2023-07-29T12:27:44;98850.78;;;27.59
78905;BMP280;68291;49.602;8.722;2023-07-29T12:30:15;98837.38;;;27.61
78905;BMP280;68291;49.602;8.722;2023-07-29T12:33:09;98840.31;;;27.72
78905;BMP280;68291;49.602;8.722;2023-07-29T12:35:41;98842.44;;;27.83
78905;BMP280;68291;49.602;8.722;2023-07-29T12:38:26;98819.72;;;27.95
78905;BMP280;68291;49.602;8.722;2023-07-29T12:41:03;98834.91;;;28.07
78905;BMP280;68291;49.602;8.722;2023-07-29T12:43:44;98843.06;;;28.12
78905;BMP280;68291;49.602;8.722;2023-07-29T12:46:30;98838.19;;;28.09
78905;BMP280;68291;49.602;8.722;2023-07-29T12:49:19;98849.56;;;28.10
78905;BMP280;68291;49.602;8.722;2023-07-29T12:52:00;98856.84;;;28.01
78905;BMP280;68291;49.602;8.722;2023-07-29T12:54:32;98841.38;;;27.98
78905;BMP280;68291;49.602;8.722;2023-07-29T12:57:09;98840.56;;;28.04
78905;BMP280;68291;49.602;8.722;2023-07-29T12:59:57;98845.09;;;28.10
78905;BMP280;68291;49.602;8.722;2023-07-29T13:02:44;98852.44;;;28.15
78905;BMP280;68291;49.602;8.722;2023-07-29T13:05:27;98840.97;;;28.35
78905;BMP280;68291;49.602;8.722;2023-07-29T13:08:01;98842.56;;;28.63
78905;BMP280;68291;49.602;8.722;2023-07-29T13:10:35;98848.09;;;28.74
78905;BMP280;68291;49.602;8.722;2023-07-29T13:13:09;98838.97;;;28.96
78905;BMP280;68291;49.602;8.722;2023-07-29T13:15:40;98841.31;;;29.37
78905;BMP280;68291;49.602;8.722;2023-07-29T13:18:13;98838.69;;;29.76
78905;BMP280;68291;49.602;8.722;2023-07-29T13:21:04;98823.13;;;30.24
78905;BMP280;68291;49.602;8.722;2023-07-29T13:23:53;98842.56;;;30.68
78905;BMP280;68291;49.602;8.722;2023-07-29T13:26:39;98829.78;;;30.96
78905;BMP280;68291;49.602;8.722;2023-07-29T13:29:24;98843.09;;;31.26
78905;BMP280;68291;49.602;8.722;2023-07-29T13:32:02;98844.63;;;31.46
78905;BMP280;68291;49.602;8.722;2023-07-29T13:34:35;98830.66;;;31.51
78905;BMP280;68291;49.602;8.722;2023-07-29T13:37:28;98825.22;;;31.39
78905;BMP280;68291;49.602;8.722;2023-07-29T13:40:12;98829.97;;;31.31
78905;BMP280;68291;49.602;8.722;2023-07-29T13:42:49;98836.91;;;31.38
78905;BMP280;68291;49.602;8.722;2023-07-29T13:45:57;98840.88;;;31.54
78905;BMP280;68291;49.602;8.722;2023-07-29T13:48:29;98839.63;;;31.56
78905;BMP280;68291;49.602;8.722;2023-07-29T13:51:19;98828.06;;;31.69
78905;BMP280;68291;49.602;8.722;2023-07-29T13:54:09;98825.41;;;31.93
78905;BMP280;68291;49.602;8.722;2023-07-29T13:56:45;98825.50;;;32.22
78905;BMP280;68291;49.602;8.722;2023-07-29T13:59:27;98832.44;;;32.23
78905;BMP280;68291;49.602;8.722;2023-07-29T14:02:07;98831.16;;;32.32
78905;BMP280;68291;49.602;8.722;2023-07-29T14:04:43;98827.25;;;32.52
78905;BMP280;68291;49.602;8.722;2023-07-29T14:07:29;98824.69;;;32.92
78905;BMP280;68291;49.602;8.722;2023-07-29T14:10:46;98828.59;;;32.72
78905;BMP280;68291;49.602;8.722;2023-07-29T14:13:36;98841.34;;;32.70
78905;BMP280;68291;49.602;8.722;2023-07-29T14:16:23;98842.47;;;32.63
78905;BMP280;68291;49.602;8.722;2023-07-29T14:19:19;98840.00;;;32.79
78905;BMP280;68291;49.602;8.722;2023-07-29T14:22:03;98844.94;;;32.82
78905;BMP280;68291;49.602;8.722;2023-07-29T14:24:41;98854.69;;;32.52
78905;BMP280;68291;49.602;8.722;2023-07-29T14:27:43;98850.66;;;32.08
78905;BMP280;68291;49.602;8.722;2023-07-29T14:30:27;98843.13;;;32.23
78905;BMP280;68291;49.602;8.722;2023-07-29T14:33:04;98850.53;;;32.92
78905;BMP280;68291;49.602;8.722;2023-07-29T14:35:50;98847.41;;;33.64
78905;BMP280;68291;49.602;8.722;2023-07-29T14:38:27;98850.72;;;34.00
78905;BMP280;68291;49.602;8.722;2023-07-29T14:41:07;98853.25;;;33.84
78905;BMP280;68291;49.602;8.722;2023-07-29T14:44:14;98846.50;;;33.70
78905;BMP280;68291;49.602;8.722;2023-07-29T14:47:11;98845.91;;;33.68
78905;BMP280;68291;49.602;8.722;2023-07-29T14:50:02;98842.53;;;33.61
78905;BMP280;68291;49.602;8.722;2023-07-29T14:53:05;98843.34;;;33.50
78905;BMP280;68291;49.602;8.722;2023-07-29T14:56:01;98848.72;;;33.33
78905;BMP280;68291;49.602;8.722;2023-07-29T14:58:39;98838.34;;;32.84
78905;BMP280;68291;49.602;8.722;2023-07-29T15:01:21;98835.22;;;32.52
78905;BMP280;68291;49.602;8.722;2023-07-29T15:04:00;98835.81;;;32.36
78905;BMP280;68291;49.602;8.722;2023-07-29T15:06:31;98837.72;;;32.47
78905;BMP280;68291;49.602;8.722;2023-07-29T15:09:20;98843.50;;;32.62
78905;BMP280;68291;49.602;8.722;2023-07-29T15:11:54;98850.56;;;32.56
78905;BMP280;68291;49.602;8.722;2023-07-29T15:14:42;98847.16;;;32.32
78905;BMP280;68291;49.602;8.722;2023-07-29T15:17:52;98840.84;;;32.44
78905;BMP280;68291;49.602;8.722;2023-07-29T15:20:34;98832.63;;;32.81
78905;BMP280;68291;49.602;8.722;2023-07-29T15:23:30;98839.47;;;33.06
78905;BMP280;68291;49.602;8.722;2023-07-29T15:26:03;98838.38;;;33.25
78905;BMP280;68291;49.602;8.722;2023-07-29T15:28:49;98835.53;;;33.38
78905;BMP280;68291;49.602;8.722;2023-07-29T15:31:20;98835.53;;;33.20
78905;BMP280;68291;49.602;8.722;2023-07-29T15:34:17;98829.41;;;32.73
78905;BMP280;68291;49.602;8.722;2023-07-29T15:37:13;98841.44;;;32.28
78905;BMP280;68291;49.602;8.722;2023-07-29T15:39:51;98842.25;;;31.87
78905;BMP280;68291;49.602;8.722;2023-07-29T15:42:24;98836.78;;;32.00
78905;BMP280;68291;49.602;8.722;2023-07-29T15:45:09;98826.66;;;32.79